This is the latest recevied weather packets stored in our database for station/object I2HLY-4. If no packets are shown the sender has not sent any weather packets the latest 10 day(s).
| Time | Temp. | Humidity | Pressure | Rain* | Wind** | Luminosity | Snow |
|---|---|---|---|---|---|---|---|
| 1778178743 | 9.44° C | 84% | 1015.2 hPa | 0 mm | - | - | - |
| 1778177842 | 10° C | 83% | 1015 hPa | 0 mm | - | - | - |
| 1778176936 | 10.56° C | 80% | 1014.8 hPa | 0 mm | - | - | - |
| 1778176032 | 10.56° C | 80% | 1014.7 hPa | 0 mm | - | - | - |
| 1778175146 | 10.56° C | 79% | 1014.6 hPa | 0 mm | - | - | - |
| 1778174241 | 10.56° C | 80% | 1014.5 hPa | 0 mm | - | - | - |
| 1778173341 | 11.11° C | 79% | 1014.7 hPa | 0 mm | - | - | - |
| 1778172436 | 12.22° C | 81% | 1014.4 hPa | 0 mm | - | - | - |
| 1778171549 | 12.22° C | 78% | 1014.5 hPa | 0 mm | - | - | - |
| 1778170648 | 12.78° C | 81% | 1014.3 hPa | 0 mm | - | - | - |
| 1778169743 | 13.33° C | 77% | 1014.3 hPa | 0 mm | - | - | - |
| 1778168838 | 13.33° C | 74% | 1014.2 hPa | 0 mm | - | - | - |
| 1778167935 | 13.89° C | 74% | 1014 hPa | 0 mm | - | - | - |
| 1778167031 | 13.89° C | 71% | 1013.9 hPa | 0 mm | - | - | - |
| 1778166150 | 13.89° C | 71% | 1014 hPa | 0 mm | - | - | - |
| 1778165243 | 13.89° C | 69% | 1014 hPa | 0 mm | - | - | - |
| 1778163439 | 13.89° C | 67% | 1014.1 hPa | 0 mm | - | - | - |
| 1778162535 | 14.44° C | 68% | 1014.1 hPa | 0 mm | - | - | - |
| 1778161648 | 13.89° C | 68% | 1014.2 hPa | 0 mm | - | - | - |
| 1778160749 | 13.89° C | 68% | 1014.3 hPa | 0 mm | - | - | - |
| 1778159844 | 13.89° C | 67% | 1014.3 hPa | 0 mm | - | - | - |
| 1778158942 | 13.89° C | 64% | 1014.3 hPa | 0 mm | - | - | - |
| 1778158037 | 13.33° C | 67% | 1014.4 hPa | 0 mm | - | - | - |
| 1778157150 | 13.33° C | 67% | 1014.5 hPa | 0 mm | - | - | - |
| 1778156251 | 13.33° C | 69% | 1014.4 hPa | 0 mm | - | - | - |
* Rain latest hour (hover to see other rain measurements)
** Current wind speed in m/s (hover to see current wind gust speed)